sensor_id;sensor_type;location;lat;lon;timestamp;pressure;altitude;pressure_sealevel;temperature;humidity
83625;BME280;73589;41.158;-73.238;2024-01-11T00:02:09;99928.19;;;23.82;44.15
83625;BME280;73589;41.158;-73.238;2024-01-11T00:04:40;99943.25;;;23.87;44.21
83625;BME280;73589;41.158;-73.238;2024-01-11T00:07:11;99944.58;;;23.87;44.29
83625;BME280;73589;41.158;-73.238;2024-01-11T00:09:42;99956.89;;;23.85;44.42
83625;BME280;73589;41.158;-73.238;2024-01-11T00:12:13;99969.77;;;23.92;44.36
83625;BME280;73589;41.158;-73.238;2024-01-11T00:14:42;99967.10;;;23.85;44.42
83625;BME280;73589;41.158;-73.238;2024-01-11T00:17:14;99970.38;;;23.88;43.86
83625;BME280;73589;41.158;-73.238;2024-01-11T00:19:44;99977.09;;;23.92;43.97
83625;BME280;73589;41.158;-73.238;2024-01-11T00:22:15;99977.61;;;23.95;44.02
83625;BME280;73589;41.158;-73.238;2024-01-11T00:24:46;99970.27;;;23.97;44.01
83625;BME280;73589;41.158;-73.238;2024-01-11T00:27:16;99968.30;;;23.99;44.05
83625;BME280;73589;41.158;-73.238;2024-01-11T00:29:47;99977.36;;;24.01;44.11
83625;BME280;73589;41.158;-73.238;2024-01-11T00:32:17;99967.93;;;24.02;44.20
83625;BME280;73589;41.158;-73.238;2024-01-11T00:34:49;99982.32;;;24.03;44.22
83625;BME280;73589;41.158;-73.238;2024-01-11T00:37:19;99986.99;;;24.07;44.20
83625;BME280;73589;41.158;-73.238;2024-01-11T00:39:49;99978.31;;;24.00;44.37
83625;BME280;73589;41.158;-73.238;2024-01-11T00:42:20;99985.01;;;23.90;43.93
83625;BME280;73589;41.158;-73.238;2024-01-11T00:44:51;99991.01;;;23.79;43.89
83625;BME280;73589;41.158;-73.238;2024-01-11T00:47:21;99999.42;;;23.89;43.82
83625;BME280;73589;41.158;-73.238;2024-01-11T00:49:52;99994.76;;;23.87;43.74
83625;BME280;73589;41.158;-73.238;2024-01-11T00:52:22;100001.16;;;23.86;43.75
83625;BME280;73589;41.158;-73.238;2024-01-11T00:54:53;100012.87;;;23.83;43.99
83625;BME280;73589;41.158;-73.238;2024-01-11T00:57:24;100019.46;;;23.86;43.87
83625;BME280;73589;41.158;-73.238;2024-01-11T00:59:55;100020.74;;;23.85;44.11
83625;BME280;73589;41.158;-73.238;2024-01-11T01:02:25;100023.96;;;23.85;44.25
83625;BME280;73589;41.158;-73.238;2024-01-11T01:04:55;100030.29;;;23.87;44.30
83625;BME280;73589;41.158;-73.238;2024-01-11T01:07:27;100034.65;;;23.80;44.28
83625;BME280;73589;41.158;-73.238;2024-01-11T01:09:57;100038.43;;;23.69;43.68
83625;BME280;73589;41.158;-73.238;2024-01-11T01:12:27;100060.39;;;23.96;43.70
83625;BME280;73589;41.158;-73.238;2024-01-11T01:14:59;100066.42;;;24.02;43.70
83625;BME280;73589;41.158;-73.238;2024-01-11T01:17:28;100063.44;;;24.02;43.71
83625;BME280;73589;41.158;-73.238;2024-01-11T01:20:00;100069.34;;;24.03;43.78
83625;BME280;73589;41.158;-73.238;2024-01-11T01:22:30;100065.84;;;24.02;43.87
83625;BME280;73589;41.158;-73.238;2024-01-11T01:25:00;100063.82;;;24.01;43.95
83625;BME280;73589;41.158;-73.238;2024-01-11T01:27:32;100068.61;;;24.03;43.96
83625;BME280;73589;41.158;-73.238;2024-01-11T01:30:01;100070.84;;;24.02;44.08
83625;BME280;73589;41.158;-73.238;2024-01-11T01:32:32;100077.00;;;24.01;44.17
83625;BME280;73589;41.158;-73.238;2024-01-11T01:35:04;100076.44;;;23.91;44.29
83625;BME280;73589;41.158;-73.238;2024-01-11T01:37:33;100078.62;;;23.93;43.68
83625;BME280;73589;41.158;-73.238;2024-01-11T01:40:05;100080.07;;;23.99;43.68
83625;BME280;73589;41.158;-73.238;2024-01-11T01:42:34;100079.66;;;23.99;43.81
83625;BME280;73589;41.158;-73.238;2024-01-11T01:45:07;100079.65;;;24.04;43.72
83625;BME280;73589;41.158;-73.238;2024-01-11T01:47:36;100079.96;;;24.04;43.80
83625;BME280;73589;41.158;-73.238;2024-01-11T01:50:07;100083.76;;;24.06;43.84
83625;BME280;73589;41.158;-73.238;2024-01-11T01:52:40;100092.02;;;24.07;43.87
83625;BME280;73589;41.158;-73.238;2024-01-11T01:55:10;100092.31;;;24.04;44.02
83625;BME280;73589;41.158;-73.238;2024-01-11T01:57:40;100090.46;;;23.97;43.54
83625;BME280;73589;41.158;-73.238;2024-01-11T02:00:11;100087.28;;;23.93;43.19
83625;BME280;73589;41.158;-73.238;2024-01-11T02:02:42;100090.10;;;23.92;43.01
83625;BME280;73589;41.158;-73.238;2024-01-11T02:05:11;100098.95;;;23.97;42.22
83625;BME280;73589;41.158;-73.238;2024-01-11T02:07:41;100109.08;;;24.04;42.51
83625;BME280;73589;41.158;-73.238;2024-01-11T02:10:11;100117.66;;;24.04;42.61
83625;BME280;73589;41.158;-73.238;2024-01-11T02:12:41;100121.74;;;24.04;42.77
83625;BME280;73589;41.158;-73.238;2024-01-11T02:15:13;100129.18;;;24.05;42.84
83625;BME280;73589;41.158;-73.238;2024-01-11T02:17:43;100135.19;;;24.06;42.97
83625;BME280;73589;41.158;-73.238;2024-01-11T02:20:19;100132.62;;;24.00;42.82
83625;BME280;73589;41.158;-73.238;2024-01-11T02:22:50;100136.18;;;23.96;42.69
83625;BME280;73589;41.158;-73.238;2024-01-11T02:25:15;100145.17;;;24.01;42.61
83625;BME280;73589;41.158;-73.238;2024-01-11T02:27:46;100143.53;;;24.14;42.53
83625;BME280;73589;41.158;-73.238;2024-01-11T02:30:17;100147.23;;;24.09;42.73
83625;BME280;73589;41.158;-73.238;2024-01-11T02:32:48;100151.32;;;24.06;42.81
83625;BME280;73589;41.158;-73.238;2024-01-11T02:35:16;100156.44;;;24.03;42.88
83625;BME280;73589;41.158;-73.238;2024-01-11T02:37:48;100152.43;;;24.10;43.77
83625;BME280;73589;41.158;-73.238;2024-01-11T02:40:17;100147.10;;;24.01;44.01
83625;BME280;73589;41.158;-73.238;2024-01-11T02:42:48;100141.50;;;23.73;43.98
83625;BME280;73589;41.158;-73.238;2024-01-11T02:45:19;100150.65;;;23.78;43.53
83625;BME280;73589;41.158;-73.238;2024-01-11T02:47:48;100163.25;;;23.88;44.31
83625;BME280;73589;41.158;-73.238;2024-01-11T02:50:20;100160.40;;;23.99;44.20
83625;BME280;73589;41.158;-73.238;2024-01-11T02:52:51;100161.10;;;23.98;44.41
83625;BME280;73589;41.158;-73.238;2024-01-11T02:55:20;100167.21;;;23.99;44.48
83625;BME280;73589;41.158;-73.238;2024-01-11T02:57:50;100169.19;;;23.82;44.28
83625;BME280;73589;41.158;-73.238;2024-01-11T03:00:21;100171.57;;;23.70;43.88
83625;BME280;73589;41.158;-73.238;2024-01-11T03:02:51;100178.33;;;23.80;43.91
83625;BME280;73589;41.158;-73.238;2024-01-11T03:05:22;100186.24;;;23.88;44.42
83625;BME280;73589;41.158;-73.238;2024-01-11T03:07:52;100188.93;;;23.88;44.45
83625;BME280;73589;41.158;-73.238;2024-01-11T03:10:23;100195.16;;;23.90;44.58
83625;BME280;73589;41.158;-73.238;2024-01-11T03:12:52;100195.90;;;23.95;44.53
83625;BME280;73589;41.158;-73.238;2024-01-11T03:15:24;100199.51;;;23.90;44.68
83625;BME280;73589;41.158;-73.238;2024-01-11T03:17:53;100198.74;;;23.85;44.92
83625;BME280;73589;41.158;-73.238;2024-01-11T03:20:24;100190.55;;;23.81;44.53
83625;BME280;73589;41.158;-73.238;2024-01-11T03:22:55;100202.90;;;23.59;44.39
83625;BME280;73589;41.158;-73.238;2024-01-11T03:25:25;100207.39;;;23.43;44.40
83625;BME280;73589;41.158;-73.238;2024-01-11T03:27:57;100212.81;;;23.74;44.35
83625;BME280;73589;41.158;-73.238;2024-01-11T03:30:27;100215.11;;;23.75;44.36
83625;BME280;73589;41.158;-73.238;2024-01-11T03:32:57;100220.16;;;23.69;44.48
83625;BME280;73589;41.158;-73.238;2024-01-11T03:35:28;100225.75;;;23.79;44.36
83625;BME280;73589;41.158;-73.238;2024-01-11T03:37:58;100227.46;;;23.77;44.45
83625;BME280;73589;41.158;-73.238;2024-01-11T03:40:29;100238.91;;;23.82;44.37
83625;BME280;73589;41.158;-73.238;2024-01-11T03:43:00;100230.51;;;23.76;44.39
83625;BME280;73589;41.158;-73.238;2024-01-11T03:45:31;100240.39;;;23.49;44.02
83625;BME280;73589;41.158;-73.238;2024-01-11T03:48:01;100244.05;;;23.42;44.03
83625;BME280;73589;41.158;-73.238;2024-01-11T03:50:32;100245.70;;;23.66;44.07
83625;BME280;73589;41.158;-73.238;2024-01-11T03:53:03;100251.06;;;23.72;44.03
83625;BME280;73589;41.158;-73.238;2024-01-11T03:55:33;100255.98;;;23.81;43.94
83625;BME280;73589;41.158;-73.238;2024-01-11T03:58:03;100255.39;;;23.75;44.12
83625;BME280;73589;41.158;-73.238;2024-01-11T04:00:35;100256.55;;;23.78;44.20
83625;BME280;73589;41.158;-73.238;2024-01-11T04:03:06;100257.23;;;23.75;44.40
83625;BME280;73589;41.158;-73.238;2024-01-11T04:05:36;100256.59;;;23.76;44.50
83625;BME280;73589;41.158;-73.238;2024-01-11T04:08:07;100260.74;;;23.44;44.43
83625;BME280;73589;41.158;-73.238;2024-01-11T04:10:36;100270.99;;;23.37;44.25
83625;BME280;73589;41.158;-73.238;2024-01-11T04:13:08;100274.00;;;23.56;44.46
83625;BME280;73589;41.158;-73.238;2024-01-11T04:15:38;100275.88;;;23.69;44.33
83625;BME280;73589;41.158;-73.238;2024-01-11T04:18:07;100274.17;;;23.76;44.22
83625;BME280;73589;41.158;-73.238;2024-01-11T04:20:39;100280.32;;;23.77;44.35
83625;BME280;73589;41.158;-73.238;2024-01-11T04:23:08;100289.77;;;23.75;44.58
83625;BME280;73589;41.158;-73.238;2024-01-11T04:25:40;100296.31;;;23.80;44.61
83625;BME280;73589;41.158;-73.238;2024-01-11T04:28:10;100293.97;;;23.69;44.83
83625;BME280;73589;41.158;-73.238;2024-01-11T04:30:40;100289.01;;;23.36;44.57
83625;BME280;73589;41.158;-73.238;2024-01-11T04:33:12;100292.87;;;23.35;44.45
83625;BME280;73589;41.158;-73.238;2024-01-11T04:35:41;100286.77;;;23.47;44.76
83625;BME280;73589;41.158;-73.238;2024-01-11T04:38:11;100292.50;;;23.57;44.86
83625;BME280;73589;41.158;-73.238;2024-01-11T04:40:43;100293.63;;;23.68;44.83
83625;BME280;73589;41.158;-73.238;2024-01-11T04:43:12;100297.31;;;23.66;45.11
83625;BME280;73589;41.158;-73.238;2024-01-11T04:45:44;100302.74;;;23.65;45.24
83625;BME280;73589;41.158;-73.238;2024-01-11T04:48:14;100302.97;;;23.69;45.31
83625;BME280;73589;41.158;-73.238;2024-01-11T04:50:45;100295.76;;;23.51;45.38
83625;BME280;73589;41.158;-73.238;2024-01-11T04:53:16;100288.37;;;23.35;44.88
83625;BME280;73589;41.158;-73.238;2024-01-11T04:55:46;100289.05;;;23.34;44.58
83625;BME280;73589;41.158;-73.238;2024-01-11T04:58:16;100299.44;;;23.48;44.99
83625;BME280;73589;41.158;-73.238;2024-01-11T05:00:48;100298.55;;;23.56;44.99
83625;BME280;73589;41.158;-73.238;2024-01-11T05:03:18;100308.16;;;23.59;45.03
83625;BME280;73589;41.158;-73.238;2024-01-11T05:05:48;100319.97;;;23.62;45.07
83625;BME280;73589;41.158;-73.238;2024-01-11T05:08:19;100327.98;;;23.53;45.39
83625;BME280;73589;41.158;-73.238;2024-01-11T05:10:49;100328.52;;;23.56;45.61
83625;BME280;73589;41.158;-73.238;2024-01-11T05:13:19;100332.01;;;23.52;45.32
83625;BME280;73589;41.158;-73.238;2024-01-11T05:15:50;100342.88;;;23.37;45.09
83625;BME280;73589;41.158;-73.238;2024-01-11T05:18:20;100352.67;;;23.40;45.11
83625;BME280;73589;41.158;-73.238;2024-01-11T05:20:50;100351.87;;;23.53;45.37
83625;BME280;73589;41.158;-73.238;2024-01-11T05:23:21;100343.61;;;23.52;45.41
83625;BME280;73589;41.158;-73.238;2024-01-11T05:25:51;100348.62;;;23.53;45.40
83625;BME280;73589;41.158;-73.238;2024-01-11T05:28:22;100354.96;;;23.58;45.44
83625;BME280;73589;41.158;-73.238;2024-01-11T05:30:54;100361.07;;;23.62;45.42
83625;BME280;73589;41.158;-73.238;2024-01-11T05:33:23;100359.22;;;23.67;45.33
83625;BME280;73589;41.158;-73.238;2024-01-11T05:35:54;100364.86;;;23.41;44.95
83625;BME280;73589;41.158;-73.238;2024-01-11T05:38:24;100369.73;;;23.20;45.03
83625;BME280;73589;41.158;-73.238;2024-01-11T05:40:55;100376.82;;;23.52;44.78
83625;BME280;73589;41.158;-73.238;2024-01-11T05:43:24;100380.66;;;23.56;44.79
83625;BME280;73589;41.158;-73.238;2024-01-11T05:45:56;100380.48;;;23.55;44.81
83625;BME280;73589;41.158;-73.238;2024-01-11T05:48:25;100382.45;;;23.58;44.86
83625;BME280;73589;41.158;-73.238;2024-01-11T05:50:55;100391.41;;;23.61;44.86
83625;BME280;73589;41.158;-73.238;2024-01-11T05:53:27;100396.68;;;23.58;45.05
83625;BME280;73589;41.158;-73.238;2024-01-11T05:55:56;100389.12;;;23.61;45.10
83625;BME280;73589;41.158;-73.238;2024-01-11T05:58:28;100387.71;;;23.36;44.89
83625;BME280;73589;41.158;-73.238;2024-01-11T06:00:58;100392.11;;;23.28;44.66
83625;BME280;73589;41.158;-73.238;2024-01-11T06:03:28;100400.16;;;23.47;44.72
83625;BME280;73589;41.158;-73.238;2024-01-11T06:06:00;100402.72;;;23.55;44.74
83625;BME280;73589;41.158;-73.238;2024-01-11T06:08:30;100412.66;;;23.50;44.98
83625;BME280;73589;41.158;-73.238;2024-01-11T06:10:59;100406.23;;;23.56;45.03
83625;BME280;73589;41.158;-73.238;2024-01-11T06:13:31;100418.52;;;23.52;44.97
83625;BME280;73589;41.158;-73.238;2024-01-11T06:16:00;100424.89;;;23.58;44.92
83625;BME280;73589;41.158;-73.238;2024-01-11T06:18:31;100423.24;;;23.58;44.99
83625;BME280;73589;41.158;-73.238;2024-01-11T06:21:01;100423.22;;;23.21;44.96
83625;BME280;73589;41.158;-73.238;2024-01-11T06:23:31;100432.22;;;23.15;44.77
83625;BME280;73589;41.158;-73.238;2024-01-11T06:26:03;100437.72;;;23.35;44.84
83625;BME280;73589;41.158;-73.238;2024-01-11T06:28:33;100437.31;;;23.45;44.75
83625;BME280;73589;41.158;-73.238;2024-01-11T06:31:03;100443.04;;;23.48;44.74
83625;BME280;73589;41.158;-73.238;2024-01-11T06:33:35;100450.93;;;23.47;44.86
83625;BME280;73589;41.158;-73.238;2024-01-11T06:36:06;100456.61;;;23.51;44.96
83625;BME280;73589;41.158;-73.238;2024-01-11T06:38:35;100462.95;;;23.54;45.03
83625;BME280;73589;41.158;-73.238;2024-01-11T06:41:05;100465.40;;;23.47;45.01
83625;BME280;73589;41.158;-73.238;2024-01-11T06:43:36;100475.74;;;23.14;44.96
83625;BME280;73589;41.158;-73.238;2024-01-11T06:46:07;100478.71;;;23.21;44.65
83625;BME280;73589;41.158;-73.238;2024-01-11T06:48:37;100482.13;;;23.38;44.69
83625;BME280;73589;41.158;-73.238;2024-01-11T06:51:08;100487.02;;;23.42;44.59
83625;BME280;73589;41.158;-73.238;2024-01-11T06:53:38;100498.58;;;23.46;44.56
83625;BME280;73589;41.158;-73.238;2024-01-11T06:56:14;100503.80;;;23.48;44.59
83625;BME280;73589;41.158;-73.238;2024-01-11T06:58:40;100505.54;;;23.46;44.70
83625;BME280;73589;41.158;-73.238;2024-01-11T07:01:11;100507.84;;;23.46;44.78
83625;BME280;73589;41.158;-73.238;2024-01-11T07:03:41;100510.95;;;23.25;44.64
83625;BME280;73589;41.158;-73.238;2024-01-11T07:06:12;100515.93;;;23.02;44.77
83625;BME280;73589;41.158;-73.238;2024-01-11T07:08:42;100518.31;;;23.23;44.60
83625;BME280;73589;41.158;-73.238;2024-01-11T07:11:13;100526.79;;;23.27;44.68
83625;BME280;73589;41.158;-73.238;2024-01-11T07:13:43;100529.76;;;23.36;44.57
83625;BME280;73589;41.158;-73.238;2024-01-11T07:16:14;100532.78;;;23.42;44.56
83625;BME280;73589;41.158;-73.238;2024-01-11T07:18:45;100535.51;;;23.44;44.64
83625;BME280;73589;41.158;-73.238;2024-01-11T07:21:21;100532.16;;;23.44;44.72
83625;BME280;73589;41.158;-73.238;2024-01-11T07:23:45;100532.36;;;23.40;44.94
83625;BME280;73589;41.158;-73.238;2024-01-11T07:26:15;100538.81;;;23.04;44.97
83625;BME280;73589;41.158;-73.238;2024-01-11T07:28:46;100550.75;;;22.97;44.95
83625;BME280;73589;41.158;-73.238;2024-01-11T07:31:17;100560.24;;;23.25;44.99
83625;BME280;73589;41.158;-73.238;2024-01-11T07:33:47;100555.18;;;23.36;44.79
83625;BME280;73589;41.158;-73.238;2024-01-11T07:36:18;100551.79;;;23.41;44.71
83625;BME280;73589;41.158;-73.238;2024-01-11T07:38:49;100552.55;;;23.42;44.77
83625;BME280;73589;41.158;-73.238;2024-01-11T07:41:21;100558.34;;;23.41;44.86
83625;BME280;73589;41.158;-73.238;2024-01-11T07:43:50;100565.45;;;23.39;45.06
83625;BME280;73589;41.158;-73.238;2024-01-11T07:46:20;100565.59;;;23.28;44.77
83625;BME280;73589;41.158;-73.238;2024-01-11T07:48:51;100568.23;;;23.07;44.94
83625;BME280;73589;41.158;-73.238;2024-01-11T07:51:22;100578.53;;;23.21;45.04
83625;BME280;73589;41.158;-73.238;2024-01-11T07:53:52;100587.35;;;23.30;44.88
83625;BME280;73589;41.158;-73.238;2024-01-11T07:56:23;100580.33;;;23.28;44.99
83625;BME280;73589;41.158;-73.238;2024-01-11T07:58:54;100587.16;;;23.29;45.04
83625;BME280;73589;41.158;-73.238;2024-01-11T08:01:24;100584.74;;;23.36;45.10
83625;BME280;73589;41.158;-73.238;2024-01-11T08:03:55;100582.93;;;23.37;45.05
83625;BME280;73589;41.158;-73.238;2024-01-11T08:06:26;100584.61;;;23.26;44.87
83625;BME280;73589;41.158;-73.238;2024-01-11T08:08:56;100583.02;;;23.10;44.65
83625;BME280;73589;41.158;-73.238;2024-01-11T08:11:27;100583.51;;;23.08;44.68
83625;BME280;73589;41.158;-73.238;2024-01-11T08:13:58;100584.39;;;23.20;44.80
83625;BME280;73589;41.158;-73.238;2024-01-11T08:16:28;100588.63;;;23.29;44.70
83625;BME280;73589;41.158;-73.238;2024-01-11T08:18:58;100588.15;;;23.30;44.68
83625;BME280;73589;41.158;-73.238;2024-01-11T08:21:30;100595.65;;;23.31;44.66
83625;BME280;73589;41.158;-73.238;2024-01-11T08:24:00;100599.56;;;23.32;44.82
83625;BME280;73589;41.158;-73.238;2024-01-11T08:26:31;100597.88;;;23.26;44.83
83625;BME280;73589;41.158;-73.238;2024-01-11T08:29:02;100597.05;;;22.88;44.82
83625;BME280;73589;41.158;-73.238;2024-01-11T08:31:31;100603.07;;;23.05;44.44
83625;BME280;73589;41.158;-73.238;2024-01-11T08:34:03;100610.21;;;23.18;44.65
83625;BME280;73589;41.158;-73.238;2024-01-11T08:36:33;100613.28;;;23.23;44.58
83625;BME280;73589;41.158;-73.238;2024-01-11T08:39:03;100618.21;;;23.24;44.61
83625;BME280;73589;41.158;-73.238;2024-01-11T08:41:35;100623.14;;;23.30;44.76
83625;BME280;73589;41.158;-73.238;2024-01-11T08:44:05;100625.02;;;23.30;44.80
83625;BME280;73589;41.158;-73.238;2024-01-11T08:46:35;100630.82;;;23.26;44.95
83625;BME280;73589;41.158;-73.238;2024-01-11T08:49:05;100630.64;;;23.12;44.76
83625;BME280;73589;41.158;-73.238;2024-01-11T08:51:36;100628.37;;;22.95;44.59
83625;BME280;73589;41.158;-73.238;2024-01-11T08:54:06;100636.07;;;22.99;44.72
83625;BME280;73589;41.158;-73.238;2024-01-11T08:56:37;100636.14;;;23.21;44.56
83625;BME280;73589;41.158;-73.238;2024-01-11T08:59:08;100640.35;;;23.18;44.65
83625;BME280;73589;41.158;-73.238;2024-01-11T09:01:38;100645.80;;;23.22;44.68
83625;BME280;73589;41.158;-73.238;2024-01-11T09:04:08;100643.59;;;23.19;44.84
83625;BME280;73589;41.158;-73.238;2024-01-11T09:06:40;100643.59;;;23.25;44.98
83625;BME280;73589;41.158;-73.238;2024-01-11T09:09:10;100644.79;;;23.21;45.20
83625;BME280;73589;41.158;-73.238;2024-01-11T09:11:40;100642.99;;;23.05;45.32
83625;BME280;73589;41.158;-73.238;2024-01-11T09:14:11;100639.87;;;22.94;44.92
83625;BME280;73589;41.158;-73.238;2024-01-11T09:16:42;100643.10;;;23.05;44.58
83625;BME280;73589;41.158;-73.238;2024-01-11T09:19:12;100641.05;;;23.16;44.77
83625;BME280;73589;41.158;-73.238;2024-01-11T09:21:42;100646.89;;;23.21;44.70
83625;BME280;73589;41.158;-73.238;2024-01-11T09:24:12;100648.31;;;23.26;44.67
83625;BME280;73589;41.158;-73.238;2024-01-11T09:26:43;100646.80;;;23.24;44.74
83625;BME280;73589;41.158;-73.238;2024-01-11T09:29:14;100648.46;;;23.30;44.73
83625;BME280;73589;41.158;-73.238;2024-01-11T09:31:44;100647.54;;;23.30;44.78
83625;BME280;73589;41.158;-73.238;2024-01-11T09:34:16;100644.10;;;23.11;44.97
83625;BME280;73589;41.158;-73.238;2024-01-11T09:36:46;100642.42;;;22.96;44.74
83625;BME280;73589;41.158;-73.238;2024-01-11T09:39:16;100649.08;;;23.09;44.20
83625;BME280;73589;41.158;-73.238;2024-01-11T09:41:53;100651.29;;;23.15;44.60
83625;BME280;73589;41.158;-73.238;2024-01-11T09:44:18;100655.79;;;23.19;44.56
83625;BME280;73589;41.158;-73.238;2024-01-11T09:46:48;100655.34;;;23.21;44.57
83625;BME280;73589;41.158;-73.238;2024-01-11T09:49:22;100661.64;;;23.29;44.48
83625;BME280;73589;41.158;-73.238;2024-01-11T09:51:50;100657.53;;;23.11;44.50
83625;BME280;73589;41.158;-73.238;2024-01-11T09:54:20;100658.65;;;22.97;44.35
83625;BME280;73589;41.158;-73.238;2024-01-11T09:56:51;100661.57;;;23.07;44.37
83625;BME280;73589;41.158;-73.238;2024-01-11T09:59:21;100662.08;;;23.10;44.41
83625;BME280;73589;41.158;-73.238;2024-01-11T10:01:52;100668.97;;;23.18;44.43
83625;BME280;73589;41.158;-73.238;2024-01-11T10:04:23;100668.85;;;23.17;44.47
83625;BME280;73589;41.158;-73.238;2024-01-11T10:06:54;100669.42;;;23.18;44.64
83625;BME280;73589;41.158;-73.238;2024-01-11T10:09:22;100671.70;;;22.85;44.78
83625;BME280;73589;41.158;-73.238;2024-01-11T10:11:54;100678.96;;;22.96;44.24
83625;BME280;73589;41.158;-73.238;2024-01-11T10:14:24;100683.72;;;23.06;44.49
83625;BME280;73589;41.158;-73.238;2024-01-11T10:16:55;100688.27;;;23.06;44.45
83625;BME280;73589;41.158;-73.238;2024-01-11T10:19:25;100690.02;;;23.08;44.51
83625;BME280;73589;41.158;-73.238;2024-01-11T10:21:56;100698.94;;;23.17;44.44
83625;BME280;73589;41.158;-73.238;2024-01-11T10:24:27;100696.42;;;23.09;44.72
83625;BME280;73589;41.158;-73.238;2024-01-11T10:26:57;100709.28;;;23.10;44.79
83625;BME280;73589;41.158;-73.238;2024-01-11T10:29:30;100715.18;;;23.20;44.67
83625;BME280;73589;41.158;-73.238;2024-01-11T10:31:59;100715.99;;;23.23;44.69
83625;BME280;73589;41.158;-73.238;2024-01-11T10:34:28;100724.44;;;23.23;44.69
83625;BME280;73589;41.158;-73.238;2024-01-11T10:37:00;100733.99;;;23.22;44.76
83625;BME280;73589;41.158;-73.238;2024-01-11T10:39:30;100735.96;;;23.22;44.85
83625;BME280;73589;41.158;-73.238;2024-01-11T10:42:05;100736.29;;;23.24;44.86
83625;BME280;73589;41.158;-73.238;2024-01-11T10:44:34;100738.47;;;23.17;45.01
83625;BME280;73589;41.158;-73.238;2024-01-11T10:47:03;100738.00;;;23.19;44.99
83625;BME280;73589;41.158;-73.238;2024-01-11T10:49:34;100746.44;;;22.92;45.09
83625;BME280;73589;41.158;-73.238;2024-01-11T10:52:04;100758.24;;;22.97;44.51
83625;BME280;73589;41.158;-73.238;2024-01-11T10:54:34;100760.31;;;23.04;44.74
83625;BME280;73589;41.158;-73.238;2024-01-11T10:57:05;100760.84;;;23.10;44.74
83625;BME280;73589;41.158;-73.238;2024-01-11T10:59:36;100765.68;;;23.15;44.67
83625;BME280;73589;41.158;-73.238;2024-01-11T11:02:06;100769.93;;;23.16;44.69
83625;BME280;73589;41.158;-73.238;2024-01-11T11:04:38;100771.12;;;23.16;44.74
83625;BME280;73589;41.158;-73.238;2024-01-11T11:07:06;100776.35;;;23.15;44.81
83625;BME280;73589;41.158;-73.238;2024-01-11T11:09:39;100778.76;;;23.14;44.90
83625;BME280;73589;41.158;-73.238;2024-01-11T11:12:09;100785.16;;;23.12;44.99
83625;BME280;73589;41.158;-73.238;2024-01-11T11:14:39;100790.26;;;23.15;44.99
83625;BME280;73589;41.158;-73.238;2024-01-11T11:17:10;100795.33;;;23.15;45.02
83625;BME280;73589;41.158;-73.238;2024-01-11T11:19:40;100801.68;;;23.06;45.25
83625;BME280;73589;41.158;-73.238;2024-01-11T11:22:09;100798.38;;;23.13;45.16
83625;BME280;73589;41.158;-73.238;2024-01-11T11:24:41;100793.52;;;22.87;45.48
83625;BME280;73589;41.158;-73.238;2024-01-11T11:27:13;100795.73;;;22.85;45.08
83625;BME280;73589;41.158;-73.238;2024-01-11T11:29:42;100801.44;;;22.97;45.11
83625;BME280;73589;41.158;-73.238;2024-01-11T11:32:15;100807.76;;;23.09;45.21
83625;BME280;73589;41.158;-73.238;2024-01-11T11:34:43;100819.40;;;23.07;45.22
83625;BME280;73589;41.158;-73.238;2024-01-11T11:37:12;100823.68;;;23.07;45.19
83625;BME280;73589;41.158;-73.238;2024-01-11T11:39:44;100823.26;;;23.07;45.15
83625;BME280;73589;41.158;-73.238;2024-01-11T11:42:13;100819.81;;;23.13;45.02
83625;BME280;73589;41.158;-73.238;2024-01-11T11:44:48;100823.07;;;23.14;44.93
83625;BME280;73589;41.158;-73.238;2024-01-11T11:47:20;100830.00;;;23.12;44.92
83625;BME280;73589;41.158;-73.238;2024-01-11T11:52:15;100831.20;;;22.73;45.60
83625;BME280;73589;41.158;-73.238;2024-01-11T11:54:46;100835.70;;;22.63;45.20
83625;BME280;73589;41.158;-73.238;2024-01-11T11:57:17;100830.22;;;22.55;44.90
83625;BME280;73589;41.158;-73.238;2024-01-11T11:59:45;100832.17;;;22.62;44.51
83625;BME280;73589;41.158;-73.238;2024-01-11T12:02:17;100836.55;;;22.65;43.91
83625;BME280;73589;41.158;-73.238;2024-01-11T12:04:47;100845.35;;;22.94;43.45
83625;BME280;73589;41.158;-73.238;2024-01-11T12:07:17;100851.30;;;23.01;43.91
83625;BME280;73589;41.158;-73.238;2024-01-11T12:09:48;100852.36;;;23.24;43.96
83625;BME280;73589;41.158;-73.238;2024-01-11T12:12:18;100860.27;;;23.28;44.55
83625;BME280;73589;41.158;-73.238;2024-01-11T12:14:48;100870.26;;;23.33;45.00
83625;BME280;73589;41.158;-73.238;2024-01-11T12:17:19;100872.50;;;23.07;45.26
83625;BME280;73589;41.158;-73.238;2024-01-11T12:19:51;100875.26;;;23.09;45.10
83625;BME280;73589;41.158;-73.238;2024-01-11T12:22:20;100877.71;;;23.36;44.39
83625;BME280;73589;41.158;-73.238;2024-01-11T12:24:51;100878.96;;;23.35;44.74
83625;BME280;73589;41.158;-73.238;2024-01-11T12:27:21;100890.22;;;23.31;45.09
83625;BME280;73589;41.158;-73.238;2024-01-11T12:29:53;100895.43;;;23.27;45.02
83625;BME280;73589;41.158;-73.238;2024-01-11T12:32:23;100898.98;;;23.23;45.22
83625;BME280;73589;41.158;-73.238;2024-01-11T12:34:53;100894.19;;;23.15;45.26
83625;BME280;73589;41.158;-73.238;2024-01-11T12:37:24;100894.26;;;22.96;44.99
83625;BME280;73589;41.158;-73.238;2024-01-11T12:39:58;100888.78;;;22.91;44.82
83625;BME280;73589;41.158;-73.238;2024-01-11T12:42:24;100889.79;;;22.96;44.91
83625;BME280;73589;41.158;-73.238;2024-01-11T12:44:56;100889.77;;;22.94;45.01
83625;BME280;73589;41.158;-73.238;2024-01-11T12:47:26;100894.89;;;22.94;44.93
83625;BME280;73589;41.158;-73.238;2024-01-11T12:49:56;100901.98;;;22.94;44.97